Terminal Aerodrome Forecast
Issued by NWS Twin Cities, MN

Home | Current Version | Previous Version | Text Only | Print | Product List | Glossary Off
Versions: 1 2 3 4 5 6 7 8 9 10 11 12 13 14 15 16 17 18 19 20 21 22 23 24

866
FTUS43 KMPX 220900 AAA
TAFMSP
TAF AMD
KMSP 220900Z 2209/2312 VRB03KT P6SM SKC
     FM221500 15004KT P6SM SKC
     FM221900 19007KT P6SM SKC=

USA.gov is the U.S. government's official web portal to all federal, state and local government web resources and services.